ORBI/SDA METAR and TAF weather

Enter ICAO airport designator
Station Type Date Time Source
ORBI METAR 2019/04/22 18:00 UTC NOAA

ORBI 221800Z 01003KT 9999 FEW030 17/04 Q1014


Station Type Date Time Source
ORBI Decoded METAR 2019/04/22 18:00 UTC NOAA

Station name not available
Apr 22, 2019 - 02:00 PM EDT / 2019.04.22 1800 UTC
Wind: from the N (010 degrees) at 3 MPH (3 KT):0
Visibility: greater than 7 mile(s):0
Sky conditions: mostly clear
Temperature: 62 F (17 C)
Dew Point: 39 F (4 C)
Relative Humidity: 41%
Pressure (altimeter): 29.94 in. Hg (1014 hPa)
ob: ORBI 221800Z 01003KT 9999 FEW030 17/04 Q1014
cycle: 18

Station Type Date Time Source
ORBI TAF 2019/04/22 18:57 UTC NOAA

TAF TAF ORBI 221600Z 2218/2318 34008KT 9999 SCT028
BECMG 2306/2308 8000 NSC

Example: see airport list